createdAt,value
2023-03-28T00:06:45.798Z,1.07
2023-03-28T00:16:48.266Z,1.70
2023-03-28T00:26:54.516Z,1.93
2023-03-28T00:36:56.979Z,1.37
2023-03-28T00:46:59.287Z,1.00
2023-03-28T00:57:02.585Z,1.63
2023-03-28T01:07:06.065Z,1.27
2023-03-28T01:17:11.490Z,1.27
2023-03-28T01:27:38.401Z,1.17
2023-03-28T01:37:47.021Z,2.00
2023-03-28T01:48:04.462Z,1.70
2023-03-28T01:58:23.665Z,1.87
2023-03-28T02:08:35.066Z,1.17
2023-03-28T02:18:57.618Z,1.20
2023-03-28T02:29:16.081Z,1.40
2023-03-28T02:40:10.302Z,1.80
2023-03-28T02:50:12.634Z,1.93
2023-03-28T03:00:17.270Z,2.20
2023-03-28T03:10:22.002Z,2.77
2023-03-28T03:20:26.286Z,1.97
2023-03-28T03:30:28.595Z,2.37
2023-03-28T03:40:46.134Z,2.50
2023-03-28T03:50:49.551Z,2.43
2023-03-28T04:00:52.113Z,2.63
2023-03-28T04:11:11.448Z,3.37
2023-03-28T04:21:19.860Z,3.60
2023-03-28T04:31:23.535Z,3.60
2023-03-28T04:41:46.268Z,3.03
2023-03-28T04:52:20.582Z,2.93
2023-03-28T05:02:23.488Z,3.43
2023-03-28T05:12:40.508Z,3.67
2023-03-28T05:22:43.191Z,3.50
2023-03-28T05:32:45.599Z,3.73
2023-03-28T05:42:47.842Z,3.03
2023-03-28T05:52:54.192Z,3.40
2023-03-28T06:02:56.555Z,3.60
2023-03-28T06:13:07.546Z,3.50
2023-03-28T06:23:09.844Z,3.57
2023-03-28T06:33:12.384Z,3.30
2023-03-28T06:43:14.673Z,3.80
2023-03-28T06:53:22.114Z,3.40
2023-03-28T07:03:24.398Z,3.67
2023-03-28T07:13:26.700Z,3.60
2023-03-28T07:23:39.369Z,3.73
2023-03-28T07:33:43.172Z,3.40
2023-03-28T07:43:46.585Z,3.93
2023-03-28T07:53:48.833Z,3.23
2023-03-28T08:03:51.333Z,3.67
2023-03-28T08:13:54.701Z,4.03
2023-03-28T08:23:58.970Z,2.53
2023-03-28T08:34:07.529Z,2.00
2023-03-28T08:44:31.816Z,2.00
2023-03-28T08:54:40.678Z,1.20
2023-03-28T09:04:44.224Z,1.00
2023-03-28T09:15:05.335Z,1.20
2023-03-28T09:25:47.192Z,1.87
2023-03-28T09:35:51.806Z,1.00
2023-03-28T09:46:00.501Z,0.90
2023-03-28T09:56:38.804Z,1.13
2023-03-28T10:06:50.549Z,0.60
2023-03-28T10:16:52.793Z,1.00
2023-03-28T10:27:24.285Z,0.40
2023-03-28T10:37:32.233Z,0.40
2023-03-28T10:48:16.691Z,0.33
2023-03-28T10:58:46.303Z,0.50
2023-03-28T11:09:04.534Z,0.70
2023-03-28T11:19:38.156Z,0.77
2023-03-28T11:29:49.955Z,0.87
2023-03-28T11:40:01.818Z,0.80
2023-03-28T11:50:15.105Z,0.70
2023-03-28T12:01:19.113Z,0.50
2023-03-28T12:11:28.005Z,1.00
2023-03-28T12:21:45.975Z,0.60
2023-03-28T12:32:01.069Z,0.63
2023-03-28T12:42:08.786Z,0.50
2023-03-28T12:52:25.360Z,0.77
2023-03-28T13:02:39.238Z,0.90
2023-03-28T13:12:52.194Z,0.93
2023-03-28T13:23:02.046Z,0.70
2023-03-28T13:33:28.343Z,0.50
2023-03-28T13:43:48.128Z,0.40
2023-03-28T13:53:50.710Z,0.53
2023-03-28T14:03:54.401Z,0.40
2023-03-28T14:14:07.324Z,0.93
2023-03-28T14:24:21.645Z,0.70
2023-03-28T14:34:41.340Z,0.60
2023-03-28T14:44:45.515Z,0.40
2023-03-28T14:54:49.518Z,0.40
2023-03-28T15:04:53.709Z,0.80
2023-03-28T15:14:56.538Z,0.80
2023-03-28T15:24:59.382Z,0.83
2023-03-28T15:35:40.575Z,1.53
2023-03-28T15:45:43.434Z,0.80
2023-03-28T15:55:51.060Z,0.60
2023-03-28T16:06:09.650Z,0.97
2023-03-28T16:16:22.167Z,1.13
2023-03-28T16:26:46.488Z,0.63
2023-03-28T16:36:52.179Z,1.00
2023-03-28T16:46:58.972Z,0.70
2023-03-28T16:57:01.794Z,1.30
2023-03-28T17:07:04.626Z,0.93
2023-03-28T17:17:07.539Z,1.30
2023-03-28T17:27:09.960Z,1.13
2023-03-28T17:37:13.555Z,3.77
2023-03-28T17:47:15.798Z,0.87
2023-03-28T17:57:18.556Z,0.80
2023-03-28T18:07:21.429Z,1.47
2023-03-28T18:17:24.320Z,0.70
2023-03-28T18:27:26.686Z,1.23
2023-03-28T18:37:29.540Z,1.07
2023-03-28T18:47:33.023Z,0.80
2023-03-28T18:57:35.525Z,2.10
2023-03-28T19:07:41.086Z,1.20
2023-03-28T19:17:43.253Z,1.10
2023-03-28T19:27:45.427Z,0.77
2023-03-28T19:37:47.589Z,1.10
2023-03-28T19:47:49.959Z,1.80
2023-03-28T19:57:56.949Z,2.00
2023-03-28T20:08:05.302Z,1.43
2023-03-28T20:18:10.105Z,1.27
2023-03-28T20:28:12.572Z,1.70
2023-03-28T20:38:14.891Z,1.50
2023-03-28T20:48:17.224Z,1.40
2023-03-28T20:58:19.588Z,1.47
2023-03-28T21:08:21.940Z,1.70
2023-03-28T21:18:24.166Z,1.70
2023-03-28T21:28:26.845Z,1.40
2023-03-28T21:38:29.152Z,1.57
2023-03-28T21:48:32.166Z,1.20
2023-03-28T21:58:34.852Z,1.20
2023-03-28T22:08:37.048Z,1.90
2023-03-28T22:18:41.525Z,1.73
2023-03-28T22:28:44.500Z,1.57
2023-03-28T22:38:46.616Z,1.60
2023-03-28T22:48:54.306Z,1.43
2023-03-28T22:59:03.559Z,1.60
2023-03-28T23:09:08.639Z,1.33
2023-03-28T23:19:11.185Z,1.40
2023-03-28T23:29:13.297Z,1.10
2023-03-28T23:39:15.638Z,1.40
2023-03-28T23:49:18.085Z,1.53
2023-03-28T23:59:20.200Z,1.40
